Weather observations for the past three days for
Nantucket, Nantucket Memorial Airport
Imperial (Metric)
Date Time (edt) Wind (mph) Vis. (mi.) Weather Sky Cond. Temperature (ºF) Relative Humidity Wind Chill (°F) Heat Index (°F) Pressure Precipitation (in)
Air Dwpt 6 hour altimeter (in) sea level (mb) 1 hr 3 hr 6 hr
Max. Min.
07 03:53 SW 12 0.50 Fog VV002 52 51.1 97% 29.72 1006.3
07 02:53 SW 14 0.25 Fog VV002 52 51.1 97% 29.74 1007.1
07 01:53 SW 13 0.50 Fog VV002 52 52 55 52 100% 29.75 1007.3
07 00:53 SW 16 4.00 Fog/Mist OVC003 53.1 52 96% 29.77 1008.0
06 23:53 SW 16 5.00 Fog/Mist OVC005 53.1 52 96% 29.78 1008.6
06 22:53 SW 16 5.00 Fog/Mist BKN004 OVC010 54 53.1 97% 29.79 1008.8
06 21:53 SW 17 G 33 6.00 Fog/Mist BKN007 OVC017 54 53.1 97% 29.82 1009.6
06 20:53 S 25 G 37 6.00 Fog/Mist and Breezy BKN022 OVC028 54 52 93% 29.8 1009.2
06 19:53 S 22 G 36 4.00 Fog/Mist and Breezy SCT018 SCT025 OVC044 53.1 52 57 53.1 96% 29.82 1009.8
06 18:53 S 21 G 30 8.00 Overcast and Breezy BKN038 BKN065 OVC100 54 51.1 90% 29.84 1010.3
06 17:53 S 21 G 30 9.00 Overcast and Breezy BKN039 OVC120 55 51.1 87% 29.85 1010.6
06 16:53 S 20 9.00 Partly Cloudy SCT046 55 50 83% 29.86 1011.2
06 15:53 S 20 G 32 9.00 Fair CLR 55 51.1 87% 29.87 1011.6
06 14:53 S 22 10.00 Fair and Breezy CLR 55.9 51.1 84% 29.89 1012.3
06 13:53 S 20 G 32 10.00 Fair CLR 57 50 60.1 55 78% 29.92 1013.0
06 12:53 S 21 G 31 10.00 Fair and Breezy CLR 57.9 51.1 78% 29.94 1013.9
06 11:53 S 22 G 33 10.00 Fair and Breezy CLR 57.9 51.1 78% 29.96 1014.6
06 10:53 S 23 G 32 10.00 Fair and Breezy CLR 59 52 78% 29.96 1014.4
06 09:53 S 21 G 32 10.00 Fair and Breezy CLR 57.9 51.1 78% 29.97 1014.7
06 08:53 S 22 10.00 Fair and Breezy CLR 57 51.1 81% 29.96 1014.5
06 07:53 S 20 G 31 9.00 Fair CLR 55 51.1 55.9 52 87% 29.97 1014.9
06 06:53 S 22 G 31 8.00 Fair and Breezy CLR 55 51.1 87% 29.96 1014.5
06 05:53 S 16 7.00 Fair CLR 53.1 50 89% 29.97 1014.8
06 04:53 S 16 8.00 Fair CLR 52 50 93% 29.97 1014.8
06 03:53 S 16 8.00 Fair CLR 53.1 50 89% 29.97 1015.0
06 02:53 SW 20 G 29 8.00 Fair CLR 53.1 51.1 93% 29.97 1014.8
06 01:53 S 17 G 28 8.00 Fair CLR 53.1 50 54 52 89% 29.97 1014.8
06 00:53 SW 20 G 29 8.00 Fair CLR 53.1 50 89% 29.97 1014.9
05 23:53 SW 18 8.00 Fair CLR 52 51.1 97% 29.98 1015.1
05 22:53 SW 18 7.00 Mostly Cloudy BKN018 53.1 51.1 93% 29.97 1014.8
05 21:53 S 18 G 30 8.00 Fair CLR 53.1 51.1 93% 29.97 1014.8
05 20:53 S 24 G 33 8.00 Fair and Breezy CLR 54 51.1 90% 29.95 1014.0
05 19:53 S 24 G 37 8.00 Fair and Breezy CLR 54 50 57.9 54 87% 29.91 1012.9
05 18:53 S 24 G 35 9.00 Fair and Breezy CLR 55 48.9 80% 29.9 1012.5
05 17:53 S 25 G 36 9.00 Fair and Breezy CLR 55.9 48.9 77% 29.9 1012.4
05 16:53 SW 24 G 37 10.00 Fair and Breezy CLR 57 50 78% 29.9 1012.4
05 15:53 SW 23 G 32 10.00 Fair and Breezy CLR 57 50 78% 29.91 1012.7
05 14:53 SW 20 G 30 10.00 Fair CLR 57.9 50 75% 29.92 1013.1
05 13:53 SW 20 10.00 Fair CLR 57 50 59 54 78% 29.94 1013.7
05 12:53 SW 16 G 26 10.00 Fair CLR 57.9 50 75% 29.95 1014.1
05 11:53 SW 20 G 26 10.00 Fair CLR 59 50 72% 29.95 1014.3
05 10:53 SW 16 10.00 Fair CLR 57.9 50 75% 29.95 1014.2
05 09:53 SW 17 10.00 A Few Clouds FEW090 55.9 50 81% 29.94 1014.0
05 08:53 SW 18 10.00 Fair CLR 55 48.9 80% 29.94 1013.8
05 07:53 SW 14 10.00 Fair CLR 54 48.9 54 48.9 83% 29.94 1013.8
05 06:53 SW 14 10.00 Fair CLR 52 48 86% 29.94 1013.7
05 05:53 SW 10 9.00 Fair CLR 50 46.9 89% 46 29.93 1013.3
05 04:53 SW 9 10.00 Fair CLR 48.9 46.9 93% 45 29.92 1013.3
05 03:53 SW 9 10.00 Fair CLR 50 46.9 89% 47 29.92 1013.3
05 02:53 SW 14 10.00 Fair CLR 50 46.9 89% 45 29.92 1013.2
05 01:53 SW 15 10.00 Fair CLR 51.1 46.9 51.1 50 86% 29.92 1013.3
05 00:53 SW 13 10.00 Fair CLR 50 46.9 89% 46 29.93 1013.4
04 23:53 SW 14 10.00 Fair CLR 50 46 86% 45 29.95 1014.0
04 22:53 SW 15 10.00 Fair CLR 51.1 45 80% 29.94 1014.0
04 21:53 SW 17 10.00 Fair CLR 51.1 44.1 77% 29.94 1013.8
04 20:53 SW 18 10.00 Fair CLR 50 43 77% 44 29.92 1013.0
04 19:53 SW 21 G 29 10.00 Fair and Breezy CLR 50 44.1 57 50 80% 44 29.89 1012.2
04 18:53 SW 20 10.00 Fair CLR 52 45 77% 29.88 1012.0
04 17:53 SW 22 G 32 10.00 Fair and Breezy CLR 53.1 44.1 72% 29.89 1012.1
04 16:53 SW 21 G 30 10.00 Fair and Breezy CLR 54 44.1 69% 29.89 1012.2
04 15:53 SW 23 G 32 10.00 Fair and Breezy CLR 55 44.1 67% 29.89 1012.3
04 14:53 SW 20 10.00 Fair CLR 55.9 45 67% 29.9 1012.5
04 13:53 SW 24 G 31 10.00 Fair and Breezy CLR 55.9 45 57 52 67% 29.9 1012.6
04 12:53 SW 24 G 33 10.00 Fair and Breezy CLR 55.9 46 70% 29.91 1012.7
04 11:53 SW 21 10.00 Fair and Breezy CLR 55.9 45 67% 29.91 1012.9
04 10:53 W 24 G 33 10.00 Fair and Breezy CLR 55 45 69% 29.92 1013.1
04 09:53 SW 22 G 32 10.00 Fair and Breezy CLR 55 44.1 67% 29.93 1013.3
04 08:53 W 18 G 28 10.00 Fair CLR 54 44.1 69% 29.93 1013.4
04 07:53 SW 21 10.00 Fair and Breezy CLR 52 44.1 52 45 75% 29.92 1013.3
04 06:53 W 16 10.00 Partly Cloudy SCT080 50 44.1 80% 45 29.91 1013.0
04 05:53 SW 16 10.00 Overcast OVC080 48 44.1 86% 42 29.91 1012.9
04 04:53 SW 12 10.00 Overcast OVC075 48 43 83% 44 29.9 1012.4
Date Time (edt) Wind (mph) Vis. (mi.) Weather Sky Cond. Air Dwpt Max. Min. Relative Humidity Wind Chill (°F) Heat Index (°F) altimeter (in) sea level (mb) 1 hr 3 hr 6 hr
6 hour
Temperature (ºF) Pressure Precipitation (in)